sensor_id;sensor_type;location;lat;lon;timestamp;temperature;humidity
63017;DHT22;50274;45.640;11.756;2023-08-31T00:02:15;20.20;73.20
63017;DHT22;50274;45.640;11.756;2023-08-31T00:04:41;20.20;73.20
63017;DHT22;50274;45.640;11.756;2023-08-31T00:07:07;20.20;73.20
63017;DHT22;50274;45.640;11.756;2023-08-31T00:09:32;20.20;73.30
63017;DHT22;50274;45.640;11.756;2023-08-31T00:12:00;20.10;73.30
63017;DHT22;50274;45.640;11.756;2023-08-31T00:14:27;20.10;73.40
63017;DHT22;50274;45.640;11.756;2023-08-31T00:16:53;20.10;73.40
63017;DHT22;50274;45.640;11.756;2023-08-31T00:19:19;20.10;73.50
63017;DHT22;50274;45.640;11.756;2023-08-31T00:21:45;20.10;73.60
63017;DHT22;50274;45.640;11.756;2023-08-31T00:24:11;20.10;73.60
63017;DHT22;50274;45.640;11.756;2023-08-31T00:26:37;20.10;73.70
63017;DHT22;50274;45.640;11.756;2023-08-31T00:29:09;20.00;73.70
63017;DHT22;50274;45.640;11.756;2023-08-31T00:31:37;20.00;73.80
63017;DHT22;50274;45.640;11.756;2023-08-31T00:34:03;20.00;73.80
63017;DHT22;50274;45.640;11.756;2023-08-31T00:36:32;20.00;73.80
63017;DHT22;50274;45.640;11.756;2023-08-31T00:39:03;20.00;73.90
63017;DHT22;50274;45.640;11.756;2023-08-31T00:41:31;20.00;74.00
63017;DHT22;50274;45.640;11.756;2023-08-31T00:43:57;20.00;74.00
63017;DHT22;50274;45.640;11.756;2023-08-31T00:46:24;19.90;74.00
63017;DHT22;50274;45.640;11.756;2023-08-31T00:48:50;19.90;74.10
63017;DHT22;50274;45.640;11.756;2023-08-31T00:51:15;19.90;74.10
63017;DHT22;50274;45.640;11.756;2023-08-31T00:53:43;19.90;74.10
63017;DHT22;50274;45.640;11.756;2023-08-31T00:56:08;19.90;74.20
63017;DHT22;50274;45.640;11.756;2023-08-31T00:58:34;19.90;74.20
63017;DHT22;50274;45.640;11.756;2023-08-31T01:01:09;19.90;74.20
63017;DHT22;50274;45.640;11.756;2023-08-31T01:12:03;19.80;74.30
63017;DHT22;50274;45.640;11.756;2023-08-31T01:14:53;19.70;74.30
63017;DHT22;50274;45.640;11.756;2023-08-31T01:17:27;19.70;74.40
63017;DHT22;50274;45.640;11.756;2023-08-31T01:19:55;19.70;74.40
63017;DHT22;50274;45.640;11.756;2023-08-31T01:24:54;19.70;74.50
63017;DHT22;50274;45.640;11.756;2023-08-31T01:27:20;19.70;74.50
63017;DHT22;50274;45.640;11.756;2023-08-31T01:29:46;19.70;74.50
63017;DHT22;50274;45.640;11.756;2023-08-31T01:32:12;19.70;74.60
63017;DHT22;50274;45.640;11.756;2023-08-31T01:34:38;19.70;74.70
63017;DHT22;50274;45.640;11.756;2023-08-31T01:37:17;19.60;74.70
63017;DHT22;50274;45.640;11.756;2023-08-31T01:39:54;19.60;74.80
63017;DHT22;50274;45.640;11.756;2023-08-31T01:42:22;19.60;74.80
63017;DHT22;50274;45.640;11.756;2023-08-31T01:44:50;19.60;74.80
63017;DHT22;50274;45.640;11.756;2023-08-31T01:47:17;19.60;74.90
63017;DHT22;50274;45.640;11.756;2023-08-31T01:49:44;19.60;74.90
63017;DHT22;50274;45.640;11.756;2023-08-31T01:52:10;19.50;75.00
63017;DHT22;50274;45.640;11.756;2023-08-31T01:54:36;19.50;75.10
63017;DHT22;50274;45.640;11.756;2023-08-31T01:57:05;19.50;75.10
63017;DHT22;50274;45.640;11.756;2023-08-31T01:59:32;19.50;75.20
63017;DHT22;50274;45.640;11.756;2023-08-31T02:01:58;19.50;75.20
63017;DHT22;50274;45.640;11.756;2023-08-31T02:04:24;19.50;75.20
63017;DHT22;50274;45.640;11.756;2023-08-31T02:06:50;19.50;75.30
63017;DHT22;50274;45.640;11.756;2023-08-31T02:09:16;19.50;75.30
63017;DHT22;50274;45.640;11.756;2023-08-31T02:11:41;19.50;75.20
63017;DHT22;50274;45.640;11.756;2023-08-31T02:14:07;19.50;75.30
63017;DHT22;50274;45.640;11.756;2023-08-31T02:16:34;19.50;75.30
63017;DHT22;50274;45.640;11.756;2023-08-31T02:19:00;19.50;75.30
63017;DHT22;50274;45.640;11.756;2023-08-31T02:21:25;19.40;75.40
63017;DHT22;50274;45.640;11.756;2023-08-31T02:23:51;19.40;75.40
63017;DHT22;50274;45.640;11.756;2023-08-31T02:26:17;19.40;75.40
63017;DHT22;50274;45.640;11.756;2023-08-31T02:28:43;19.40;75.40
63017;DHT22;50274;45.640;11.756;2023-08-31T02:31:10;19.40;75.50
63017;DHT22;50274;45.640;11.756;2023-08-31T02:33:39;19.40;75.50
63017;DHT22;50274;45.640;11.756;2023-08-31T02:36:05;19.30;75.50
63017;DHT22;50274;45.640;11.756;2023-08-31T02:38:30;19.30;75.50
63017;DHT22;50274;45.640;11.756;2023-08-31T02:40:56;19.30;75.50
63017;DHT22;50274;45.640;11.756;2023-08-31T02:43:22;19.30;75.50
63017;DHT22;50274;45.640;11.756;2023-08-31T02:45:48;19.30;75.60
63017;DHT22;50274;45.640;11.756;2023-08-31T02:48:13;19.30;75.60
63017;DHT22;50274;45.640;11.756;2023-08-31T02:50:39;19.20;75.60
63017;DHT22;50274;45.640;11.756;2023-08-31T02:53:05;19.20;75.60
63017;DHT22;50274;45.640;11.756;2023-08-31T02:55:34;19.20;75.60
63017;DHT22;50274;45.640;11.756;2023-08-31T02:58:00;19.20;75.60
63017;DHT22;50274;45.640;11.756;2023-08-31T03:00:25;19.20;75.60
63017;DHT22;50274;45.640;11.756;2023-08-31T03:02:51;19.10;75.50
63017;DHT22;50274;45.640;11.756;2023-08-31T03:05:19;19.10;75.50
63017;DHT22;50274;45.640;11.756;2023-08-31T03:07:47;19.10;75.60
63017;DHT22;50274;45.640;11.756;2023-08-31T03:10:13;19.10;75.60
63017;DHT22;50274;45.640;11.756;2023-08-31T03:12:39;19.10;75.60
63017;DHT22;50274;45.640;11.756;2023-08-31T03:15:05;19.10;75.60
63017;DHT22;50274;45.640;11.756;2023-08-31T03:17:32;19.10;75.60
63017;DHT22;50274;45.640;11.756;2023-08-31T03:19:57;19.10;75.60
63017;DHT22;50274;45.640;11.756;2023-08-31T03:22:23;19.00;75.60
63017;DHT22;50274;45.640;11.756;2023-08-31T03:24:49;19.10;75.60
63017;DHT22;50274;45.640;11.756;2023-08-31T03:27:15;19.00;75.60
63017;DHT22;50274;45.640;11.756;2023-08-31T03:29:45;19.10;75.60
63017;DHT22;50274;45.640;11.756;2023-08-31T03:32:11;19.00;75.70
63017;DHT22;50274;45.640;11.756;2023-08-31T03:34:37;19.00;75.70
63017;DHT22;50274;45.640;11.756;2023-08-31T03:37:03;19.00;75.70
63017;DHT22;50274;45.640;11.756;2023-08-31T03:39:28;19.00;75.80
63017;DHT22;50274;45.640;11.756;2023-08-31T03:41:54;19.00;75.80
63017;DHT22;50274;45.640;11.756;2023-08-31T03:44:23;19.00;75.80
63017;DHT22;50274;45.640;11.756;2023-08-31T03:46:49;19.00;75.80
63017;DHT22;50274;45.640;11.756;2023-08-31T03:49:15;18.90;75.80
63017;DHT22;50274;45.640;11.756;2023-08-31T03:51:41;18.90;75.90
63017;DHT22;50274;45.640;11.756;2023-08-31T03:54:07;18.90;75.90
63017;DHT22;50274;45.640;11.756;2023-08-31T03:56:33;18.90;75.90
63017;DHT22;50274;45.640;11.756;2023-08-31T03:58:58;18.90;75.90
63017;DHT22;50274;45.640;11.756;2023-08-31T04:01:24;18.90;75.90
63017;DHT22;50274;45.640;11.756;2023-08-31T04:03:50;18.90;75.90
63017;DHT22;50274;45.640;11.756;2023-08-31T04:06:16;18.90;75.90
63017;DHT22;50274;45.640;11.756;2023-08-31T04:08:42;18.90;75.90
63017;DHT22;50274;45.640;11.756;2023-08-31T04:11:08;18.90;75.90
63017;DHT22;50274;45.640;11.756;2023-08-31T04:13:33;18.90;76.00
63017;DHT22;50274;45.640;11.756;2023-08-31T04:15:59;18.90;76.00
63017;DHT22;50274;45.640;11.756;2023-08-31T04:18:25;18.80;76.00
63017;DHT22;50274;45.640;11.756;2023-08-31T04:20:53;18.80;76.00
63017;DHT22;50274;45.640;11.756;2023-08-31T04:23:19;18.80;76.00
63017;DHT22;50274;45.640;11.756;2023-08-31T04:25:47;18.80;76.10
63017;DHT22;50274;45.640;11.756;2023-08-31T04:28:13;18.80;76.10
63017;DHT22;50274;45.640;11.756;2023-08-31T04:30:40;18.80;76.10
63017;DHT22;50274;45.640;11.756;2023-08-31T04:33:06;18.80;76.10
63017;DHT22;50274;45.640;11.756;2023-08-31T04:35:33;18.70;76.10
63017;DHT22;50274;45.640;11.756;2023-08-31T04:37:59;18.70;76.20
63017;DHT22;50274;45.640;11.756;2023-08-31T04:40:24;18.70;76.20
63017;DHT22;50274;45.640;11.756;2023-08-31T04:42:51;18.70;76.20
63017;DHT22;50274;45.640;11.756;2023-08-31T04:45:17;18.70;76.20
63017;DHT22;50274;45.640;11.756;2023-08-31T04:47:42;18.70;76.20
63017;DHT22;50274;45.640;11.756;2023-08-31T04:50:09;18.70;76.20
63017;DHT22;50274;45.640;11.756;2023-08-31T04:52:35;18.70;76.30
63017;DHT22;50274;45.640;11.756;2023-08-31T04:55:02;18.70;76.20
63017;DHT22;50274;45.640;11.756;2023-08-31T04:57:30;18.70;76.20
63017;DHT22;50274;45.640;11.756;2023-08-31T04:59:56;18.70;76.20
63017;DHT22;50274;45.640;11.756;2023-08-31T05:02:22;18.70;76.20
63017;DHT22;50274;45.640;11.756;2023-08-31T05:04:48;18.70;76.20
63017;DHT22;50274;45.640;11.756;2023-08-31T05:07:13;18.70;76.20
63017;DHT22;50274;45.640;11.756;2023-08-31T05:09:39;18.70;76.20
63017;DHT22;50274;45.640;11.756;2023-08-31T05:12:05;18.70;76.20
63017;DHT22;50274;45.640;11.756;2023-08-31T05:14:33;18.70;76.20
63017;DHT22;50274;45.640;11.756;2023-08-31T05:17:03;18.80;76.20
63017;DHT22;50274;45.640;11.756;2023-08-31T05:19:30;18.70;76.20
63017;DHT22;50274;45.640;11.756;2023-08-31T05:21:56;18.80;76.30
63017;DHT22;50274;45.640;11.756;2023-08-31T05:24:22;18.80;76.30
63017;DHT22;50274;45.640;11.756;2023-08-31T05:26:49;18.80;76.30
63017;DHT22;50274;45.640;11.756;2023-08-31T05:29:15;18.90;76.40
63017;DHT22;50274;45.640;11.756;2023-08-31T05:31:41;18.80;76.50
63017;DHT22;50274;45.640;11.756;2023-08-31T05:34:09;18.90;76.50
63017;DHT22;50274;45.640;11.756;2023-08-31T05:36:35;18.90;76.50
63017;DHT22;50274;45.640;11.756;2023-08-31T05:39:00;18.90;76.60
63017;DHT22;50274;45.640;11.756;2023-08-31T05:41:26;19.00;76.60
63017;DHT22;50274;45.640;11.756;2023-08-31T05:43:52;19.00;76.70
63017;DHT22;50274;45.640;11.756;2023-08-31T05:46:18;19.10;76.80
63017;DHT22;50274;45.640;11.756;2023-08-31T05:48:44;19.10;76.80
63017;DHT22;50274;45.640;11.756;2023-08-31T05:51:10;19.10;76.80
63017;DHT22;50274;45.640;11.756;2023-08-31T05:53:36;19.20;76.90
63017;DHT22;50274;45.640;11.756;2023-08-31T05:56:03;19.30;77.00
63017;DHT22;50274;45.640;11.756;2023-08-31T05:58:34;19.30;76.90
63017;DHT22;50274;45.640;11.756;2023-08-31T06:01:04;19.30;76.90
63017;DHT22;50274;45.640;11.756;2023-08-31T06:03:30;19.30;76.90
63017;DHT22;50274;45.640;11.756;2023-08-31T06:05:57;19.40;76.80
63017;DHT22;50274;45.640;11.756;2023-08-31T06:08:23;19.50;76.80
63017;DHT22;50274;45.640;11.756;2023-08-31T06:10:50;19.50;76.70
63017;DHT22;50274;45.640;11.756;2023-08-31T06:13:16;19.60;76.50
63017;DHT22;50274;45.640;11.756;2023-08-31T06:15:42;19.60;76.40
63017;DHT22;50274;45.640;11.756;2023-08-31T06:18:08;19.70;76.30
63017;DHT22;50274;45.640;11.756;2023-08-31T06:20:34;19.70;76.20
63017;DHT22;50274;45.640;11.756;2023-08-31T06:23:00;19.80;76.10
63017;DHT22;50274;45.640;11.756;2023-08-31T06:25:25;19.80;75.90
63017;DHT22;50274;45.640;11.756;2023-08-31T06:27:51;19.90;75.80
63017;DHT22;50274;45.640;11.756;2023-08-31T06:30:17;20.00;75.70
63017;DHT22;50274;45.640;11.756;2023-08-31T06:32:44;20.10;75.40
63017;DHT22;50274;45.640;11.756;2023-08-31T06:35:11;20.10;75.20
63017;DHT22;50274;45.640;11.756;2023-08-31T06:37:38;20.20;75.10
63017;DHT22;50274;45.640;11.756;2023-08-31T06:40:09;20.30;75.00
63017;DHT22;50274;45.640;11.756;2023-08-31T06:42:36;20.40;74.90
63017;DHT22;50274;45.640;11.756;2023-08-31T06:45:03;20.50;74.60
63017;DHT22;50274;45.640;11.756;2023-08-31T06:47:29;20.60;74.20
63017;DHT22;50274;45.640;11.756;2023-08-31T06:49:54;20.60;74.00
63017;DHT22;50274;45.640;11.756;2023-08-31T06:52:20;20.70;73.70
63017;DHT22;50274;45.640;11.756;2023-08-31T06:54:46;20.80;73.30
63017;DHT22;50274;45.640;11.756;2023-08-31T06:57:12;20.90;73.00
63017;DHT22;50274;45.640;11.756;2023-08-31T06:59:38;20.90;72.60
63017;DHT22;50274;45.640;11.756;2023-08-31T07:02:03;21.00;72.40
63017;DHT22;50274;45.640;11.756;2023-08-31T07:04:29;21.00;72.20
63017;DHT22;50274;45.640;11.756;2023-08-31T07:06:55;21.10;71.90
63017;DHT22;50274;45.640;11.756;2023-08-31T07:09:22;21.10;71.50
63017;DHT22;50274;45.640;11.756;2023-08-31T07:11:47;21.20;70.90
63017;DHT22;50274;45.640;11.756;2023-08-31T07:14:13;21.30;70.70
63017;DHT22;50274;45.640;11.756;2023-08-31T07:16:39;21.30;70.60
63017;DHT22;50274;45.640;11.756;2023-08-31T07:19:05;21.40;70.40
63017;DHT22;50274;45.640;11.756;2023-08-31T07:21:31;21.40;70.30
63017;DHT22;50274;45.640;11.756;2023-08-31T07:23:57;21.40;70.20
63017;DHT22;50274;45.640;11.756;2023-08-31T07:26:22;21.50;69.80
63017;DHT22;50274;45.640;11.756;2023-08-31T07:28:48;21.60;69.70
63017;DHT22;50274;45.640;11.756;2023-08-31T07:31:14;21.60;69.50
63017;DHT22;50274;45.640;11.756;2023-08-31T07:33:42;21.60;69.60
63017;DHT22;50274;45.640;11.756;2023-08-31T07:36:08;21.60;69.40
63017;DHT22;50274;45.640;11.756;2023-08-31T07:38:34;21.70;69.30
63017;DHT22;50274;45.640;11.756;2023-08-31T07:41:00;21.70;69.30
63017;DHT22;50274;45.640;11.756;2023-08-31T07:43:26;21.80;69.50
63017;DHT22;50274;45.640;11.756;2023-08-31T07:45:53;21.80;69.40
63017;DHT22;50274;45.640;11.756;2023-08-31T07:48:20;22.00;69.20
63017;DHT22;50274;45.640;11.756;2023-08-31T07:50:46;22.10;68.90
63017;DHT22;50274;45.640;11.756;2023-08-31T07:53:12;22.10;68.60
63017;DHT22;50274;45.640;11.756;2023-08-31T07:55:39;22.20;68.30
63017;DHT22;50274;45.640;11.756;2023-08-31T07:58:05;22.30;67.70
63017;DHT22;50274;45.640;11.756;2023-08-31T08:00:31;22.30;67.20
63017;DHT22;50274;45.640;11.756;2023-08-31T08:02:56;22.40;67.10
63017;DHT22;50274;45.640;11.756;2023-08-31T08:05:22;22.40;66.50
63017;DHT22;50274;45.640;11.756;2023-08-31T08:07:48;22.40;66.50
63017;DHT22;50274;45.640;11.756;2023-08-31T08:10:14;22.50;66.30
63017;DHT22;50274;45.640;11.756;2023-08-31T08:12:41;22.60;66.20
63017;DHT22;50274;45.640;11.756;2023-08-31T08:15:11;22.70;66.10
63017;DHT22;50274;45.640;11.756;2023-08-31T08:17:37;22.80;65.80
63017;DHT22;50274;45.640;11.756;2023-08-31T08:20:06;22.90;64.70
63017;DHT22;50274;45.640;11.756;2023-08-31T08:22:32;23.00;64.10
63017;DHT22;50274;45.640;11.756;2023-08-31T08:24:59;23.10;64.00
63017;DHT22;50274;45.640;11.756;2023-08-31T08:27:25;23.00;64.20
63017;DHT22;50274;45.640;11.756;2023-08-31T08:29:51;23.10;64.30
63017;DHT22;50274;45.640;11.756;2023-08-31T08:32:17;23.10;63.80
63017;DHT22;50274;45.640;11.756;2023-08-31T08:34:42;23.20;63.60
63017;DHT22;50274;45.640;11.756;2023-08-31T08:37:08;23.30;63.10
63017;DHT22;50274;45.640;11.756;2023-08-31T08:39:34;23.30;62.90
63017;DHT22;50274;45.640;11.756;2023-08-31T08:42:04;23.30;63.10
63017;DHT22;50274;45.640;11.756;2023-08-31T08:44:32;23.30;62.60
63017;DHT22;50274;45.640;11.756;2023-08-31T08:47:02;23.40;62.30
63017;DHT22;50274;45.640;11.756;2023-08-31T08:49:31;23.50;61.80
63017;DHT22;50274;45.640;11.756;2023-08-31T08:52:00;23.60;61.50
63017;DHT22;50274;45.640;11.756;2023-08-31T08:54:27;23.60;61.50
63017;DHT22;50274;45.640;11.756;2023-08-31T08:56:53;23.70;61.00
63017;DHT22;50274;45.640;11.756;2023-08-31T08:59:18;23.80;61.20
63017;DHT22;50274;45.640;11.756;2023-08-31T09:01:46;23.90;60.70
63017;DHT22;50274;45.640;11.756;2023-08-31T09:04:12;24.00;60.30
63017;DHT22;50274;45.640;11.756;2023-08-31T09:06:38;24.10;58.50
63017;DHT22;50274;45.640;11.756;2023-08-31T09:09:04;24.20;58.50
63017;DHT22;50274;45.640;11.756;2023-08-31T09:11:30;24.30;58.90
63017;DHT22;50274;45.640;11.756;2023-08-31T09:13:57;24.30;58.70
63017;DHT22;50274;45.640;11.756;2023-08-31T09:16:30;24.50;59.00
63017;DHT22;50274;45.640;11.756;2023-08-31T09:18:57;24.60;58.80
63017;DHT22;50274;45.640;11.756;2023-08-31T09:21:44;24.70;58.70
63017;DHT22;50274;45.640;11.756;2023-08-31T09:24:11;24.80;58.40
63017;DHT22;50274;45.640;11.756;2023-08-31T09:26:38;24.90;57.90
63017;DHT22;50274;45.640;11.756;2023-08-31T09:29:07;25.00;58.20
63017;DHT22;50274;45.640;11.756;2023-08-31T09:31:34;25.10;57.40
63017;DHT22;50274;45.640;11.756;2023-08-31T09:34:00;25.10;57.70
63017;DHT22;50274;45.640;11.756;2023-08-31T09:36:26;25.30;57.40
63017;DHT22;50274;45.640;11.756;2023-08-31T09:38:57;25.40;56.90
63017;DHT22;50274;45.640;11.756;2023-08-31T09:41:24;25.40;56.60
63017;DHT22;50274;45.640;11.756;2023-08-31T09:43:50;25.60;56.40
63017;DHT22;50274;45.640;11.756;2023-08-31T09:46:16;25.70;56.70
63017;DHT22;50274;45.640;11.756;2023-08-31T09:48:42;25.80;56.10
63017;DHT22;50274;45.640;11.756;2023-08-31T09:51:12;25.80;55.80
63017;DHT22;50274;45.640;11.756;2023-08-31T09:53:40;26.00;56.20
63017;DHT22;50274;45.640;11.756;2023-08-31T09:56:09;26.00;55.90
63017;DHT22;50274;45.640;11.756;2023-08-31T09:58:38;25.80;56.00
63017;DHT22;50274;45.640;11.756;2023-08-31T10:01:05;25.70;56.20
63017;DHT22;50274;45.640;11.756;2023-08-31T10:03:32;25.60;56.40
63017;DHT22;50274;45.640;11.756;2023-08-31T10:05:58;25.70;56.40
63017;DHT22;50274;45.640;11.756;2023-08-31T10:08:27;25.60;56.40
63017;DHT22;50274;45.640;11.756;2023-08-31T10:10:59;25.40;56.50
63017;DHT22;50274;45.640;11.756;2023-08-31T10:13:26;25.20;57.10
63017;DHT22;50274;45.640;11.756;2023-08-31T10:15:54;25.10;57.30
63017;DHT22;50274;45.640;11.756;2023-08-31T10:18:21;25.00;57.80
63017;DHT22;50274;45.640;11.756;2023-08-31T10:20:47;25.10;58.40
63017;DHT22;50274;45.640;11.756;2023-08-31T10:23:13;25.30;58.00
63017;DHT22;50274;45.640;11.756;2023-08-31T10:25:59;25.60;57.50
63017;DHT22;50274;45.640;11.756;2023-08-31T10:28:26;25.90;57.10
63017;DHT22;50274;45.640;11.756;2023-08-31T10:31:15;26.00;56.80
63017;DHT22;50274;45.640;11.756;2023-08-31T10:33:47;26.00;56.70
63017;DHT22;50274;45.640;11.756;2023-08-31T10:36:20;25.90;56.30
63017;DHT22;50274;45.640;11.756;2023-08-31T10:41:24;25.80;56.20
63017;DHT22;50274;45.640;11.756;2023-08-31T10:43:54;26.00;56.30
63017;DHT22;50274;45.640;11.756;2023-08-31T10:48:58;26.40;55.90
63017;DHT22;50274;45.640;11.756;2023-08-31T10:51:32;26.40;55.60
63017;DHT22;50274;45.640;11.756;2023-08-31T10:54:24;26.20;55.70
63017;DHT22;50274;45.640;11.756;2023-08-31T10:56:55;26.00;56.10
63017;DHT22;50274;45.640;11.756;2023-08-31T10:59:40;25.80;56.20
63017;DHT22;50274;45.640;11.756;2023-08-31T11:02:07;25.80;56.40
63017;DHT22;50274;45.640;11.756;2023-08-31T11:04:53;25.60;56.60
63017;DHT22;50274;45.640;11.756;2023-08-31T11:07:23;25.50;57.30
63017;DHT22;50274;45.640;11.756;2023-08-31T11:09:49;25.70;57.70
63017;DHT22;50274;45.640;11.756;2023-08-31T11:12:15;26.00;58.10
63017;DHT22;50274;45.640;11.756;2023-08-31T11:14:41;26.30;55.50
63017;DHT22;50274;45.640;11.756;2023-08-31T11:17:07;26.70;55.20
63017;DHT22;50274;45.640;11.756;2023-08-31T11:19:34;27.00;54.10
63017;DHT22;50274;45.640;11.756;2023-08-31T11:22:01;27.20;53.80
63017;DHT22;50274;45.640;11.756;2023-08-31T11:24:31;27.50;53.00
63017;DHT22;50274;45.640;11.756;2023-08-31T11:26:57;27.60;52.50
63017;DHT22;50274;45.640;11.756;2023-08-31T11:29:23;27.60;52.20
63017;DHT22;50274;45.640;11.756;2023-08-31T11:31:49;27.70;52.10
63017;DHT22;50274;45.640;11.756;2023-08-31T11:34:17;27.50;52.40
63017;DHT22;50274;45.640;11.756;2023-08-31T11:36:44;27.20;53.30
63017;DHT22;50274;45.640;11.756;2023-08-31T11:39:10;27.00;54.10
63017;DHT22;50274;45.640;11.756;2023-08-31T11:41:37;26.90;53.50
63017;DHT22;50274;45.640;11.756;2023-08-31T11:44:12;26.90;53.60
63017;DHT22;50274;45.640;11.756;2023-08-31T11:46:39;26.90;53.30
63017;DHT22;50274;45.640;11.756;2023-08-31T11:49:07;26.90;54.00
63017;DHT22;50274;45.640;11.756;2023-08-31T11:51:34;26.80;54.40
63017;DHT22;50274;45.640;11.756;2023-08-31T11:54:04;26.70;54.90
63017;DHT22;50274;45.640;11.756;2023-08-31T11:56:43;26.70;54.90
63017;DHT22;50274;45.640;11.756;2023-08-31T11:59:15;26.80;53.70
63017;DHT22;50274;45.640;11.756;2023-08-31T12:01:42;26.90;53.40
63017;DHT22;50274;45.640;11.756;2023-08-31T12:04:12;26.90;53.50
63017;DHT22;50274;45.640;11.756;2023-08-31T12:06:39;27.00;53.40
63017;DHT22;50274;45.640;11.756;2023-08-31T12:09:07;26.80;53.30
63017;DHT22;50274;45.640;11.756;2023-08-31T12:11:33;26.70;54.00
63017;DHT22;50274;45.640;11.756;2023-08-31T12:14:03;26.50;54.70
63017;DHT22;50274;45.640;11.756;2023-08-31T12:16:36;26.40;55.20
63017;DHT22;50274;45.640;11.756;2023-08-31T12:19:03;26.40;55.30
63017;DHT22;50274;45.640;11.756;2023-08-31T12:21:36;26.70;54.40
63017;DHT22;50274;45.640;11.756;2023-08-31T12:24:02;27.20;53.70
63017;DHT22;50274;45.640;11.756;2023-08-31T12:26:29;27.60;52.00
63017;DHT22;50274;45.640;11.756;2023-08-31T12:28:55;27.80;50.60
63017;DHT22;50274;45.640;11.756;2023-08-31T12:31:23;28.10;49.80
63017;DHT22;50274;45.640;11.756;2023-08-31T12:33:49;28.30;49.00
63017;DHT22;50274;45.640;11.756;2023-08-31T12:36:15;28.70;49.20
63017;DHT22;50274;45.640;11.756;2023-08-31T12:38:41;29.00;48.90
63017;DHT22;50274;45.640;11.756;2023-08-31T12:41:07;29.00;47.20
63017;DHT22;50274;45.640;11.756;2023-08-31T12:43:34;29.10;47.70
63017;DHT22;50274;45.640;11.756;2023-08-31T12:46:00;29.20;47.40
63017;DHT22;50274;45.640;11.756;2023-08-31T12:48:26;29.40;47.10
63017;DHT22;50274;45.640;11.756;2023-08-31T12:50:52;29.60;47.30
63017;DHT22;50274;45.640;11.756;2023-08-31T12:53:21;29.80;47.40
63017;DHT22;50274;45.640;11.756;2023-08-31T12:55:47;29.80;46.80
63017;DHT22;50274;45.640;11.756;2023-08-31T12:58:13;29.90;46.40
63017;DHT22;50274;45.640;11.756;2023-08-31T13:00:39;29.90;45.70
63017;DHT22;50274;45.640;11.756;2023-08-31T13:03:05;30.00;46.10
63017;DHT22;50274;45.640;11.756;2023-08-31T13:05:32;30.00;45.40
63017;DHT22;50274;45.640;11.756;2023-08-31T13:07:58;29.90;44.10
63017;DHT22;50274;45.640;11.756;2023-08-31T13:10:24;29.80;44.20
63017;DHT22;50274;45.640;11.756;2023-08-31T13:12:50;29.90;44.60
63017;DHT22;50274;45.640;11.756;2023-08-31T13:15:16;30.00;44.40
63017;DHT22;50274;45.640;11.756;2023-08-31T13:17:41;30.10;44.70
63017;DHT22;50274;45.640;11.756;2023-08-31T13:20:08;30.30;45.00
63017;DHT22;50274;45.640;11.756;2023-08-31T13:22:34;30.40;45.00
63017;DHT22;50274;45.640;11.756;2023-08-31T13:25:00;30.10;45.30
63017;DHT22;50274;45.640;11.756;2023-08-31T13:27:26;29.90;45.90
63017;DHT22;50274;45.640;11.756;2023-08-31T13:29:51;29.80;46.10
63017;DHT22;50274;45.640;11.756;2023-08-31T13:32:17;29.80;46.00
63017;DHT22;50274;45.640;11.756;2023-08-31T13:34:43;29.80;44.60
63017;DHT22;50274;45.640;11.756;2023-08-31T13:37:12;29.80;44.40
63017;DHT22;50274;45.640;11.756;2023-08-31T13:39:39;29.70;44.50
63017;DHT22;50274;45.640;11.756;2023-08-31T13:42:05;29.60;44.90
63017;DHT22;50274;45.640;11.756;2023-08-31T13:44:33;29.70;44.60
63017;DHT22;50274;45.640;11.756;2023-08-31T13:46:59;29.70;45.00
63017;DHT22;50274;45.640;11.756;2023-08-31T13:49:25;29.90;45.00
63017;DHT22;50274;45.640;11.756;2023-08-31T13:51:51;29.80;44.10
63017;DHT22;50274;45.640;11.756;2023-08-31T13:54:16;29.70;44.20
63017;DHT22;50274;45.640;11.756;2023-08-31T13:56:42;29.60;44.30
63017;DHT22;50274;45.640;11.756;2023-08-31T13:59:09;29.60;45.10
63017;DHT22;50274;45.640;11.756;2023-08-31T14:01:35;29.40;44.40
63017;DHT22;50274;45.640;11.756;2023-08-31T14:04:01;29.20;44.70
63017;DHT22;50274;45.640;11.756;2023-08-31T14:06:29;29.10;45.60
63017;DHT22;50274;45.640;11.756;2023-08-31T14:09:00;28.90;46.20
63017;DHT22;50274;45.640;11.756;2023-08-31T14:11:26;28.90;46.80
63017;DHT22;50274;45.640;11.756;2023-08-31T14:14:02;28.90;47.10
63017;DHT22;50274;45.640;11.756;2023-08-31T14:16:29;28.70;47.70
63017;DHT22;50274;45.640;11.756;2023-08-31T14:18:55;28.70;48.30
63017;DHT22;50274;45.640;11.756;2023-08-31T14:21:20;28.70;48.00
63017;DHT22;50274;45.640;11.756;2023-08-31T14:23:47;28.70;47.20
63017;DHT22;50274;45.640;11.756;2023-08-31T14:26:13;28.70;46.40
63017;DHT22;50274;45.640;11.756;2023-08-31T14:28:38;28.70;46.30
63017;DHT22;50274;45.640;11.756;2023-08-31T14:31:05;28.60;46.70
63017;DHT22;50274;45.640;11.756;2023-08-31T14:33:31;28.60;47.10
63017;DHT22;50274;45.640;11.756;2023-08-31T14:35:57;28.60;47.50
63017;DHT22;50274;45.640;11.756;2023-08-31T14:38:23;28.40;47.80
63017;DHT22;50274;45.640;11.756;2023-08-31T14:40:50;28.40;48.10
63017;DHT22;50274;45.640;11.756;2023-08-31T14:43:16;28.30;48.60
63017;DHT22;50274;45.640;11.756;2023-08-31T14:45:42;28.30;49.00
63017;DHT22;50274;45.640;11.756;2023-08-31T14:48:08;28.20;49.20
63017;DHT22;50274;45.640;11.756;2023-08-31T14:50:34;28.10;49.20
63017;DHT22;50274;45.640;11.756;2023-08-31T14:53:00;27.90;49.40
63017;DHT22;50274;45.640;11.756;2023-08-31T14:55:26;27.80;49.70
63017;DHT22;50274;45.640;11.756;2023-08-31T14:57:51;27.70;49.90
63017;DHT22;50274;45.640;11.756;2023-08-31T15:00:17;27.60;50.00
63017;DHT22;50274;45.640;11.756;2023-08-31T15:02:44;27.60;50.40
63017;DHT22;50274;45.640;11.756;2023-08-31T15:05:12;27.50;50.80
63017;DHT22;50274;45.640;11.756;2023-08-31T15:07:39;27.40;51.30
63017;DHT22;50274;45.640;11.756;2023-08-31T15:10:05;27.40;51.40
63017;DHT22;50274;45.640;11.756;2023-08-31T15:12:43;27.40;51.30
63017;DHT22;50274;45.640;11.756;2023-08-31T15:15:16;27.30;51.40
63017;DHT22;50274;45.640;11.756;2023-08-31T15:17:42;27.30;52.00
63017;DHT22;50274;45.640;11.756;2023-08-31T15:20:09;27.30;52.20
63017;DHT22;50274;45.640;11.756;2023-08-31T15:22:34;27.40;52.30
63017;DHT22;50274;45.640;11.756;2023-08-31T15:25:00;27.50;52.10
63017;DHT22;50274;45.640;11.756;2023-08-31T15:27:26;27.60;51.80
63017;DHT22;50274;45.640;11.756;2023-08-31T15:29:53;27.60;51.80
63017;DHT22;50274;45.640;11.756;2023-08-31T15:32:19;27.60;51.90